Time;durP1;ratioP1;P1;durP2;ratioP2;P2;SDS_P1;SDS_P2;PMS_P1;PMS_P2;Temp;Humidity;BMP_temperature;BMP_pressure;BME280_temperature;BME280_humidity;BME280_pressure;Samples;Min_cycle;Max_cycle;Signal;HPM_P1;HPM_P2
2022/06/16 00:00:19;;;;;;;14.70;9.05;;;;;;;13.90;74.25;101009.56;1752685;80;27433;-83
2022/06/16 00:02:51;;;;;;;15.10;8.63;;;;;;;13.89;74.27;101009.27;1741295;82;25760;-83
2022/06/16 00:05:22;;;;;;;15.48;8.55;;;;;;;13.88;74.59;101012.12;1751214;81;25817;-84
2022/06/16 00:07:49;;;;;;;14.10;8.10;;;;;;;13.87;74.48;101011.32;1758176;80;26720;-84
2022/06/16 00:10:16;;;;;;;10.38;7.97;;;;;;;13.87;74.73;101008.62;1736396;81;25850;-84
2022/06/16 00:12:43;;;;;;;14.90;8.18;;;;;;;13.85;74.50;101010.69;1765421;81;27454;-83
2022/06/16 00:15:14;;;;;;;12.98;7.95;;;;;;;13.82;74.59;101009.73;1726267;82;25763;-83
2022/06/16 00:17:40;;;;;;;13.18;7.35;;;;;;;13.79;74.25;101012.80;1728340;82;25801;-84
2022/06/16 00:20:08;;;;;;;10.03;7.30;;;;;;;13.74;74.10;101011.23;1713351;82;25954;-83
2022/06/16 00:22:36;;;;;;;12.07;8.03;;;;;;;13.70;74.02;101014.01;1765318;81;25945;-84
2022/06/16 00:25:04;;;;;;;12.82;7.33;;;;;;;13.64;73.87;101013.42;1741145;82;27514;-84
2022/06/16 00:27:32;;;;;;;13.88;8.75;;;;;;;13.60;73.88;101008.66;1766114;81;25557;-84
2022/06/16 00:29:59;;;;;;;10.70;7.40;;;;;;;13.56;74.12;101002.81;1740911;82;25801;-84
2022/06/16 00:32:26;;;;;;;16.05;7.67;;;;;;;13.53;74.20;100999.69;1765542;80;25805;-83
2022/06/16 00:34:52;;;;;;;15.63;8.40;;;;;;;13.50;74.19;100998.72;1736820;82;25473;-83
2022/06/16 00:37:18;;;;;;;12.07;7.55;;;;;;;13.47;74.44;101002.63;1735237;82;27439;-83
2022/06/16 00:39:45;;;;;;;15.80;7.78;;;;;;;13.46;74.86;101000.98;1735348;82;25699;-84
2022/06/16 00:42:22;;;;;;;13.75;8.25;;;;;;;13.48;75.10;101000.78;1711409;83;26011;-84
2022/06/16 00:44:52;;;;;;;10.72;8.15;;;;;;;13.48;75.22;101000.78;1735576;82;25823;-83
2022/06/16 00:47:22;;;;;;;11.97;8.15;;;;;;;13.48;75.35;100994.05;1735636;81;26022;-83
2022/06/16 00:49:52;;;;;;;12.98;7.90;;;;;;;13.47;75.44;100993.75;1711672;82;28503;-84
2022/06/16 00:52:26;;;;;;;14.00;9.13;;;;;;;13.42;75.18;100995.68;1735384;82;26394;-83
2022/06/16 00:55:10;;;;;;;11.75;7.22;;;;;;;13.38;75.20;100987.69;1735164;82;26493;-83
2022/06/16 00:57:42;;;;;;;11.78;7.47;;;;;;;13.36;75.19;100988.91;1711923;83;25805;-84
2022/06/16 01:00:18;;;;;;;10.72;7.05;;;;;;;13.28;75.07;100985.83;1735178;81;25798;-84
2022/06/16 01:02:43;;;;;;;9.60;7.67;;;;;;;13.23;75.03;100980.72;1735569;82;27444;-84
2022/06/16 01:05:09;;;;;;;9.23;6.75;;;;;;;13.19;75.25;100976.26;1712045;83;25830;-84
2022/06/16 01:07:42;;;;;;;11.15;7.65;;;;;;;13.21;75.41;100976.05;1735304;82;25924;-84
2022/06/16 01:10:10;;;;;;;10.53;7.47;;;;;;;13.18;75.41;100967.02;1735143;82;25825;-84
2022/06/16 01:16:23;;;;;;;15.03;9.25;;;;;;;13.13;75.65;100969.77;1735601;81;28337;-83
2022/06/16 01:18:58;;;;;;;15.30;8.13;;;;;;;13.07;75.57;100969.22;1735778;81;25826;-83
2022/06/16 01:21:45;;;;;;;13.08;8.53;;;;;;;13.03;75.41;100966.56;1735092;81;25825;-83
2022/06/16 01:24:23;;;;;;;15.93;9.25;;;;;;;13.01;75.45;100965.92;1735150;81;26587;-83
2022/06/16 01:27:33;;;;;;;11.63;8.78;;;;;;;12.99;75.80;100963.11;1712001;83;26146;-83
2022/06/16 01:30:08;;;;;;;14.58;8.95;;;;;;;12.98;75.71;100964.15;1735932;82;27426;-83
2022/06/16 01:33:01;;;;;;;16.12;9.73;;;;;;;12.93;75.73;100963.88;1735192;81;25758;-84
2022/06/16 01:35:37;;;;;;;12.88;8.50;;;;;;;12.90;75.90;100957.03;1747921;81;26376;-84
2022/06/16 01:38:25;;;;;;;12.68;8.13;;;;;;;12.83;75.53;100964.19;1734249;82;26283;-84
2022/06/16 01:41:09;;;;;;;14.33;8.88;;;;;;;12.78;75.40;100958.58;1741427;82;25812;-83
2022/06/16 01:43:56;;;;;;;12.65;8.78;;;;;;;12.73;75.49;100957.47;1765770;80;28295;-84
2022/06/16 01:46:30;;;;;;;15.80;9.25;;;;;;;12.67;75.39;100963.12;1720189;82;25840;-84
2022/06/16 01:49:22;;;;;;;14.25;9.58;;;;;;;12.61;75.52;100966.58;1765592;81;25487;-83
2022/06/16 01:51:53;;;;;;;18.42;9.48;;;;;;;12.57;75.71;100970.67;1765466;80;25920;-84
2022/06/16 01:54:26;;;;;;;14.87;10.20;;;;;;;12.53;75.98;100973.39;1741082;82;26032;-85
2022/06/16 01:56:57;;;;;;;11.00;8.90;;;;;;;12.49;75.71;100972.64;1765817;81;28324;-84
2022/06/16 01:59:35;;;;;;;14.93;10.20;;;;;;;12.45;75.68;100969.98;1765875;81;25928;-84
2022/06/16 02:02:07;;;;;;;14.28;9.68;;;;;;;12.42;75.71;100968.53;1712816;82;26413;-84
2022/06/16 02:04:57;;;;;;;13.25;8.78;;;;;;;12.41;75.76;100972.23;1765484;80;25947;-84
2022/06/16 02:07:35;;;;;;;12.13;9.20;;;;;;;12.41;75.94;100970.89;1741298;82;25765;-84
2022/06/16 02:10:11;;;;;;;14.78;9.55;;;;;;;12.39;75.83;100971.59;1752906;80;27462;-84
2022/06/16 02:12:55;;;;;;;14.98;9.25;;;;;;;12.40;75.93;100973.27;1740740;82;25683;-84
2022/06/16 02:15:38;;;;;;;14.35;9.10;;;;;;;12.39;75.96;100969.74;1764433;81;26013;-84
2022/06/16 02:18:09;;;;;;;14.53;9.20;;;;;;;12.40;75.92;100975.42;1728364;82;26559;-84
2022/06/16 02:20:48;;;;;;;;;;;;;;;12.38;75.91;100972.63;1719528;83;25806;-84
2022/06/16 02:23:15;;;;;;;16.45;9.03;;;;;;;12.38;76.08;100973.44;1719224;83;27466;-85
2022/06/16 02:25:45;;;;;;;13.03;8.83;;;;;;;12.34;76.10;100972.66;1764742;80;25777;-84
2022/06/16 02:28:12;;;;;;;12.70;8.15;;;;;;;12.35;76.26;100975.68;1732086;82;25819;-83
2022/06/16 02:30:44;;;;;;;11.30;7.92;;;;;;;12.36;76.74;100971.95;1723582;81;25865;-83
2022/06/16 02:33:26;;;;;;;11.65;7.67;;;;;;;12.36;77.40;100976.83;1720055;81;25818;-83
2022/06/16 02:36:12;;;;;;;;;;;;;;;12.35;77.60;100977.86;1761277;79;28263;-83
2022/06/16 02:39:18;;;;;;;12.00;8.80;;;;;;;12.36;78.07;100988.91;1756522;80;25781;-83
2022/06/16 02:42:09;;;;;;;16.55;8.35;;;;;;;12.36;78.05;100990.76;1750500;80;25962;-84
2022/06/16 02:44:49;;;;;;;12.40;8.15;;;;;;;12.39;77.99;100999.30;1726018;81;26656;-83
2022/06/16 02:47:48;;;;;;;12.30;7.62;;;;;;;12.41;77.94;100997.75;1769784;79;33782;-84
2022/06/16 02:50:57;;;;;;;13.20;8.18;;;;;;;12.42;78.02;100993.22;1723696;82;27689;-83
2022/06/16 02:53:45;;;;;;;9.80;7.67;;;;;;;12.43;78.07;100995.70;1747982;81;25809;-83
2022/06/16 02:56:22;;;;;;;11.33;8.13;;;;;;;12.46;78.33;100994.50;1673364;83;25940;-83
2022/06/16 02:58:50;;;;;;;9.83;7.90;;;;;;;12.48;78.28;100996.48;1705838;83;26570;-83
2022/06/16 03:01:18;;;;;;;14.45;8.15;;;;;;;12.47;78.30;100988.12;1734805;82;25943;-84
2022/06/16 03:04:05;;;;;;;12.43;7.97;;;;;;;12.47;78.51;100990.81;1730549;82;27636;-84
2022/06/16 03:06:32;;;;;;;11.78;8.83;;;;;;;12.48;78.59;100984.39;1753958;80;25913;-84
2022/06/16 03:08:59;;;;;;;13.00;7.90;;;;;;;12.51;78.98;100982.16;1730867;82;25889;-83
2022/06/16 03:11:26;;;;;;;13.68;8.18;;;;;;;12.52;79.07;100981.65;1735860;81;25894;-83
2022/06/16 03:13:53;;;;;;;13.28;9.68;;;;;;;12.56;79.33;100982.93;1758151;80;25819;-83
2022/06/16 03:16:25;;;;;;;14.60;8.60;;;;;;;12.60;79.46;100979.67;1729107;82;27439;-84
2022/06/16 03:18:52;;;;;;;13.53;8.93;;;;;;;12.63;79.50;100971.25;1725135;82;25907;-83
2022/06/16 03:21:18;;;;;;;17.40;8.60;;;;;;;12.66;79.58;100971.38;1743574;80;25848;-83
2022/06/16 03:23:44;;;;;;;13.85;9.35;;;;;;;12.68;79.55;100970.14;1727107;82;26139;-83
2022/06/16 03:26:11;;;;;;;13.32;9.25;;;;;;;12.72;79.66;100966.58;1740019;80;25807;-84
2022/06/16 03:28:38;;;;;;;14.15;8.68;;;;;;;12.76;79.74;100970.04;1755408;81;28319;-84
2022/06/16 03:31:06;;;;;;;11.50;8.23;;;;;;;12.79;79.69;100969.64;1728462;81;25836;-83
2022/06/16 03:33:32;;;;;;;12.95;8.30;;;;;;;12.82;79.79;100967.08;1702092;81;25951;-83
2022/06/16 03:35:59;;;;;;;15.85;9.15;;;;;;;12.83;79.77;100966.08;1708026;82;25845;-84
2022/06/16 03:38:40;;;;;;;11.55;8.50;;;;;;;12.87;79.78;100974.88;1753835;81;26371;-84
2022/06/16 03:41:04;;;;;;;11.08;8.53;;;;;;;12.88;79.95;100963.62;1736771;80;28350;-83
2022/06/16 03:43:30;;;;;;;12.18;7.70;;;;;;;12.91;79.95;100968.13;1721807;81;25931;-82
2022/06/16 03:45:59;;;;;;;11.93;8.20;;;;;;;12.95;80.05;100960.48;1714354;82;25734;-83
2022/06/16 03:48:25;;;;;;;10.30;7.67;;;;;;;12.99;80.16;100963.11;1732624;81;25849;-83
2022/06/16 03:50:51;;;;;;;12.68;7.50;;;;;;;13.02;80.31;100966.23;1734688;82;26542;-83
2022/06/16 03:53:18;;;;;;;11.70;8.18;;;;;;;13.05;80.30;100965.05;1757024;81;27468;-83
2022/06/16 03:55:47;;;;;;;10.72;7.53;;;;;;;13.07;80.46;100967.87;1750409;81;25961;-83
2022/06/16 03:58:14;;;;;;;12.65;7.70;;;;;;;13.11;80.44;100962.92;1708386;82;25831;-83
2022/06/16 04:00:42;;;;;;;7.92;6.67;;;;;;;13.14;80.67;100963.38;1736795;80;26985;-84
2022/06/16 04:05:55;;;;;;;10.18;7.40;;;;;;;13.22;80.94;100958.36;1743109;81;26903;-84
2022/06/16 04:08:22;;;;;;;8.93;7.55;;;;;;;13.29;81.27;100961.95;1733102;80;25825;-85
2022/06/16 04:10:50;;;;;;;8.60;6.78;;;;;;;13.38;81.52;100958.59;1755464;79;26630;-85
2022/06/16 04:13:17;;;;;;;12.80;7.33;;;;;;;13.48;81.91;100955.03;1757060;79;25762;-84
2022/06/16 04:15:43;;;;;;;10.78;6.97;;;;;;;13.57;82.08;100955.20;1732497;80;26098;-85
2022/06/16 04:18:12;;;;;;;14.70;8.08;;;;;;;13.67;82.36;100955.16;1705985;82;28266;-84
2022/06/16 04:20:42;;;;;;;8.90;7.67;;;;;;;13.76;82.38;100949.94;1749580;79;25937;-85
2022/06/16 04:23:28;;;;;;;9.13;7.47;;;;;;;13.90;82.51;100954.86;1730121;82;25875;-84
2022/06/16 04:25:55;;;;;;;8.95;6.97;;;;;;;14.05;82.54;100947.48;1713631;82;25916;-84
2022/06/16 04:28:23;;;;;;;14.98;7.40;;;;;;;14.18;82.46;100948.88;1726890;81;26128;-85
2022/06/16 04:30:51;;;;;;;11.88;7.33;;;;;;;14.29;82.15;100946.16;1731883;80;27443;-84
2022/06/16 04:33:19;;;;;;;9.10;6.37;;;;;;;14.40;82.18;100948.27;1734266;81;25750;-85
2022/06/16 04:35:47;;;;;;;10.10;6.45;;;;;;;14.50;82.13;100949.53;1742603;81;25897;-83
2022/06/16 04:38:16;;;;;;;11.50;7.03;;;;;;;14.60;82.03;100943.77;1736771;80;26003;-84
2022/06/16 04:40:42;;;;;;;14.30;6.90;;;;;;;14.74;82.25;100943.25;1732507;80;25878;-85
2022/06/16 04:43:14;;;;;;;9.45;5.90;;;;;;;14.84;82.16;100945.86;1732069;82;28360;-84
2022/06/16 04:45:39;;;;;;;9.95;6.17;;;;;;;14.93;81.69;100943.28;1752422;81;25796;-84
2022/06/16 04:48:07;;;;;;;7.00;5.80;;;;;;;15.03;81.46;100942.37;1731700;81;26509;-84
2022/06/16 04:50:36;;;;;;;10.25;6.37;;;;;;;15.14;81.24;100949.02;1737473;81;25748;-84
2022/06/16 04:53:05;;;;;;;8.75;6.65;;;;;;;15.23;81.43;100944.53;1764939;80;26111;-84
2022/06/16 04:55:34;;;;;;;9.68;5.62;;;;;;;15.32;81.87;100948.68;1728310;82;28310;-85
2022/06/16 04:58:19;;;;;;;12.07;5.62;;;;;;;15.42;82.23;100940.14;1765060;81;25355;-84
2022/06/16 05:00:57;;;;;;;8.90;5.80;;;;;;;15.53;81.58;100942.23;1729368;82;26410;-85
2022/06/16 05:03:34;;;;;;;12.68;6.17;;;;;;;15.64;81.23;100934.01;1730713;82;25939;-84
2022/06/16 05:06:05;;;;;;;12.25;6.03;;;;;;;15.78;81.69;100939.70;1726866;82;25323;-84
2022/06/16 05:08:33;;;;;;;8.63;5.45;;;;;;;15.93;81.68;100936.23;1754668;81;28259;-84
2022/06/16 05:11:13;;;;;;;8.48;5.67;;;;;;;16.06;81.49;100930.75;1714411;82;25979;-84
2022/06/16 05:13:53;;;;;;;6.47;4.60;;;;;;;16.16;80.83;100941.44;1732708;82;25896;-84
2022/06/16 05:16:34;;;;;;;9.53;5.47;;;;;;;16.28;80.87;100936.68;1689754;82;26749;-84
2022/06/16 05:19:14;;;;;;;7.55;5.17;;;;;;;16.39;80.41;100930.59;1702896;82;26031;-83
2022/06/16 05:21:46;;;;;;;6.80;5.10;;;;;;;16.45;79.90;100934.62;1705515;82;28313;-84
2022/06/16 05:24:31;;;;;;;7.00;4.60;;;;;;;16.58;80.68;100929.68;1722692;81;26555;-83
2022/06/16 05:27:18;;;;;;;6.33;4.47;;;;;;;16.71;79.85;100933.66;1674508;85;26594;-83
2022/06/16 05:29:49;;;;;;;6.53;4.25;;;;;;;16.82;79.51;100928.91;1678926;84;26755;-83
2022/06/16 05:32:20;;;;;;;6.45;4.28;;;;;;;17.06;79.09;100919.98;1712001;81;25975;-84
2022/06/16 05:35:00;;;;;;;6.20;3.73;;;;;;;17.06;79.09;100919.98;1763367;81;27023;-84
2022/06/16 05:37:31;;;;;;;8.28;4.08;;;;;;;17.22;79.21;100925.33;1728990;82;25944;-83
2022/06/16 05:40:09;;;;;;;4.40;3.33;;;;;;;17.41;79.01;100925.16;1643670;84;26735;-83
2022/06/16 05:42:54;;;;;;;6.15;3.20;;;;;;;17.58;78.45;100924.07;1748242;79;25875;-83
2022/06/16 05:45:38;;;;;;;3.22;2.87;;;;;;;17.79;77.91;100930.95;1719412;83;25998;-83
2022/06/16 05:48:15;;;;;;;7.20;3.47;;;;;;;17.92;76.18;100928.09;1715507;79;27455;-84
2022/06/16 05:50:44;;;;;;;3.65;2.67;;;;;;;18.03;75.16;100925.44;1748852;79;25766;-84
2022/06/16 05:53:12;;;;;;;3.80;2.70;;;;;;;18.13;74.80;100918.97;1723120;79;25813;-85
2022/06/16 05:55:41;;;;;;;5.40;3.10;;;;;;;18.22;74.60;100918.93;1758749;79;25853;-84
2022/06/16 05:58:09;;;;;;;4.55;2.77;;;;;;;18.33;73.82;100914.61;1756555;79;25777;-86
2022/06/16 06:00:43;;;;;;;4.28;2.90;;;;;;;18.37;73.41;100920.70;1756596;81;27548;-81
2022/06/16 06:03:11;;;;;;;4.40;3.00;;;;;;;18.43;73.22;100919.78;1757633;81;25979;-84
2022/06/16 06:05:39;;;;;;;4.03;2.98;;;;;;;18.51;72.92;100919.20;1752507;80;25867;-81
2022/06/16 06:16:37;;;;;;;6.05;3.15;;;;;;;18.70;71.33;100919.44;1739520;81;26478;-82
2022/06/16 06:19:26;;;;;;;6.90;3.02;;;;;;;18.76;71.18;100921.22;1720111;82;25761;-83
2022/06/16 06:21:58;;;;;;;4.62;2.77;;;;;;;18.88;71.12;100913.95;1720621;82;26015;-83
2022/06/16 06:24:33;;;;;;;5.47;3.22;;;;;;;19.00;70.32;100916.14;1746339;81;25843;-84
2022/06/16 06:27:06;;;;;;;5.78;3.08;;;;;;;19.09;70.28;100918.29;1754178;81;28282;-84
2022/06/16 06:29:32;;;;;;;7.92;2.90;;;;;;;19.18;69.50;100911.98;1752930;79;25788;-83
2022/06/16 06:31:59;;;;;;;7.35;3.20;;;;;;;19.30;68.91;100910.09;1754014;81;25812;-84
2022/06/16 06:34:25;;;;;;;4.85;2.52;;;;;;;19.41;68.41;100912.02;1755434;80;26302;-84
2022/06/16 06:36:53;;;;;;;4.78;2.90;;;;;;;19.54;68.87;100906.86;1739210;81;26763;-84
2022/06/16 06:39:19;;;;;;;5.83;2.27;;;;;;;19.67;68.38;100912.05;1744906;81;27436;-85
2022/06/16 06:41:46;;;;;;;5.17;2.52;;;;;;;19.79;67.60;100910.12;1750284;80;25967;-85
2022/06/16 06:44:12;;;;;;;3.90;2.70;;;;;;;19.88;66.01;100909.53;1731924;81;25890;-85
2022/06/16 06:46:39;;;;;;;4.12;2.35;;;;;;;19.93;66.03;100902.81;1754991;80;26566;-83
2022/06/16 06:49:05;;;;;;;5.37;2.77;;;;;;;20.00;66.22;100893.17;1751446;81;26006;-83
2022/06/16 06:51:32;;;;;;;3.87;2.42;;;;;;;20.08;66.30;100886.54;1740451;82;27436;-84
2022/06/16 06:54:00;;;;;;;4.62;2.58;;;;;;;20.16;65.81;100886.15;1764951;81;25855;-85
2022/06/16 06:56:29;;;;;;;3.83;2.20;;;;;;;20.24;65.41;100878.45;1724202;82;25904;-85
2022/06/16 06:58:58;;;;;;;5.80;2.50;;;;;;;20.31;64.28;100882.39;1748529;81;25774;-86
2022/06/16 07:01:25;;;;;;;3.08;2.25;;;;;;;20.35;64.19;100883.02;1743347;81;25910;-84
2022/06/16 07:03:51;;;;;;;4.80;2.25;;;;;;;20.42;64.08;100878.23;1755606;80;28296;-85
2022/06/16 07:06:19;;;;;;;3.85;2.58;;;;;;;20.49;64.00;100870.75;1747008;81;25866;-85
2022/06/16 07:08:46;;;;;;;4.50;1.77;;;;;;;20.57;63.06;100868.98;1750282;81;25649;-82
2022/06/16 07:11:13;;;;;;;5.15;1.82;;;;;;;20.61;62.40;100870.70;1755135;80;26505;-83
2022/06/16 07:13:40;;;;;;;4.45;1.70;;;;;;;20.67;61.54;100869.19;1709210;82;25361;-84
2022/06/16 07:16:09;;;;;;;2.52;1.98;;;;;;;20.72;61.45;100869.81;1738409;82;27513;-84
2022/06/16 07:18:35;;;;;;;3.77;2.17;;;;;;;20.76;62.00;100868.24;1739878;80;25838;-85
2022/06/16 07:21:01;;;;;;;4.40;1.70;;;;;;;20.84;61.64;100871.08;1745015;81;25879;-84
2022/06/16 07:23:28;;;;;;;3.25;2.17;;;;;;;20.88;61.81;100870.34;1761165;80;25752;-82
2022/06/16 07:25:54;;;;;;;3.65;1.92;;;;;;;20.91;61.76;100868.49;1727206;82;25306;-82
2022/06/16 07:28:20;;;;;;;5.28;1.80;;;;;;;20.98;61.85;100867.77;1735623;82;27430;-83
2022/06/16 07:30:47;;;;;;;2.30;1.90;;;;;;;21.05;60.39;100871.72;1742206;81;25751;-84
2022/06/16 07:33:14;;;;;;;2.72;1.70;;;;;;;21.11;59.98;100861.19;1737058;82;26176;-82
2022/06/16 07:35:43;;;;;;;5.03;2.00;;;;;;;21.21;60.20;100866.25;1736824;81;25765;-84
2022/06/16 07:38:12;;;;;;;3.30;1.60;;;;;;;21.31;60.24;100858.24;1737305;81;25840;-83
2022/06/16 07:40:39;;;;;;;4.80;2.00;;;;;;;21.46;59.88;100863.08;1750243;81;28237;-83
2022/06/16 07:43:06;;;;;;;6.67;1.80;;;;;;;21.61;59.68;100859.20;1730624;82;25352;-84
2022/06/16 07:45:34;;;;;;;3.60;1.60;;;;;;;21.71;58.46;100854.39;1722991;82;25804;-82
2022/06/16 07:48:05;;;;;;;3.17;1.70;;;;;;;21.82;58.82;100850.72;1753495;81;26578;-83
2022/06/16 07:50:33;;;;;;;;;;;;;;;21.96;58.29;100847.37;1721951;82;25295;-83
2022/06/16 07:52:59;;;;;;;5.75;1.80;;;;;;;22.09;57.29;100846.98;1724015;82;27465;-83
2022/06/16 07:55:26;;;;;;;3.25;1.50;;;;;;;22.17;57.48;100852.01;1765168;80;25703;-83
2022/06/16 07:57:52;;;;;;;1.95;1.30;;;;;;;22.14;56.47;100851.67;1730763;82;25780;-83
2022/06/16 08:00:24;;;;;;;7.17;2.00;;;;;;;22.06;56.67;100849.41;1746394;81;25903;-84
2022/06/16 08:02:51;;;;;;;3.62;1.65;;;;;;;22.05;57.22;100850.48;1765110;81;25989;-83
2022/06/16 08:05:19;;;;;;;4.30;1.70;;;;;;;22.12;57.09;100849.22;1760369;80;27712;-85
2022/06/16 08:07:45;;;;;;;2.62;1.20;;;;;;;22.16;56.60;100847.62;1731855;82;25805;-83
2022/06/16 08:10:17;;;;;;;2.67;1.42;;;;;;;22.21;56.54;100848.22;1749705;81;26478;-84
2022/06/16 08:12:44;;;;;;;2.33;1.35;;;;;;;22.27;55.81;100845.81;1731705;82;26541;-83
2022/06/16 08:15:12;;;;;;;4.92;1.75;;;;;;;22.35;55.37;100839.89;1761443;80;25795;-83
2022/06/16 08:17:42;;;;;;;2.92;1.35;;;;;;;22.46;54.74;100843.53;1733900;82;27448;-84
2022/06/16 08:20:09;;;;;;;3.23;1.83;;;;;;;22.55;54.12;100843.35;1709999;82;26667;-83
2022/06/16 08:22:37;;;;;;;2.08;1.22;;;;;;;22.64;53.50;100846.77;1721231;82;25740;-82
2022/06/16 08:25:07;;;;;;;3.65;1.57;;;;;;;22.74;54.17;100848.73;1726370;82;26598;-83
2022/06/16 08:27:37;;;;;;;1.27;1.15;;;;;;;22.85;53.92;100845.02;1725971;81;25813;-82
2022/06/16 08:30:12;;;;;;;2.72;1.45;;;;;;;23.01;54.13;100848.13;1739897;80;27413;-80
2022/06/16 08:32:40;;;;;;;3.33;1.77;;;;;;;23.14;53.28;100844.94;1747451;81;25825;-83
2022/06/16 08:35:07;;;;;;;2.20;1.35;;;;;;;23.25;52.98;100851.30;1736237;81;25451;-83
2022/06/16 08:37:35;;;;;;;2.10;1.00;;;;;;;23.27;52.37;100848.58;1735187;82;26015;-81
2022/06/16 08:40:04;;;;;;;2.45;1.40;;;;;;;23.28;51.89;100844.78;1754700;80;25910;-81
2022/06/16 08:42:50;;;;;;;4.45;1.60;;;;;;;23.32;51.96;100852.72;1724633;82;27622;-81
2022/06/16 08:45:34;;;;;;;2.85;1.20;;;;;;;23.41;52.48;100842.14;1723314;80;25802;-82
2022/06/16 08:48:20;;;;;;;1.90;1.20;;;;;;;23.49;52.65;100842.46;1764693;79;25791;-81
2022/06/16 08:50:58;;;;;;;2.37;1.50;;;;;;;23.55;52.33;100846.03;1693557;79;25776;-82
2022/06/16 08:53:36;;;;;;;1.60;1.42;;;;;;;23.60;52.04;100840.06;1758679;81;25888;-81
2022/06/16 08:56:14;;;;;;;3.62;1.35;;;;;;;23.66;52.06;100840.89;1754577;80;27508;-82
2022/06/16 08:58:58;;;;;;;1.80;1.20;;;;;;;23.76;51.86;100836.28;1730377;82;25936;-83
2022/06/16 09:01:54;;;;;;;2.27;1.37;;;;;;;23.87;51.22;100830.84;1751850;81;25760;-83
2022/06/16 09:04:35;;;;;;;2.85;1.40;;;;;;;23.94;51.30;100832.79;1733326;82;25801;-83
2022/06/16 09:07:31;;;;;;;4.10;1.25;;;;;;;23.96;49.51;100826.50;1746869;80;26279;-83
2022/06/16 09:10:25;;;;;;;3.27;1.30;;;;;;;23.92;49.03;100839.91;1722903;82;28350;-84
2022/06/16 09:13:12;;;;;;;1.85;1.17;;;;;;;23.86;49.94;100827.31;1720659;82;26526;-83
2022/06/16 09:16:11;;;;;;;2.67;1.20;;;;;;;23.81;50.04;100831.92;1744581;81;25825;-83
2022/06/16 09:19:06;;;;;;;5.70;1.02;;;;;;;23.72;49.96;100835.72;1754482;80;25879;-83
2022/06/16 09:21:41;;;;;;;4.28;0.98;;;;;;;23.68;49.85;100829.14;1741085;82;25355;-82
2022/06/16 09:24:25;;;;;;;2.42;1.50;;;;;;;23.66;50.19;100824.48;1729751;81;28453;-83
2022/06/16 09:27:03;;;;;;;3.58;1.10;;;;;;;23.63;48.93;100827.77;1732650;82;25957;-83
2022/06/16 09:29:41;;;;;;;2.50;1.17;;;;;;;23.65;49.79;100832.42;1744295;81;25667;-82
2022/06/16 09:32:34;;;;;;;3.62;1.12;;;;;;;23.67;49.79;100828.88;1733986;81;26583;-83
2022/06/16 09:35:10;;;;;;;3.90;1.12;;;;;;;23.68;49.65;100831.34;1725933;81;25917;-83
2022/06/16 09:37:57;;;;;;;3.10;1.25;;;;;;;23.69;49.64;100834.34;1717151;82;26939;-82
2022/06/16 09:40:29;;;;;;;3.92;1.20;;;;;;;23.71;49.28;100826.72;1729341;82;26678;-83
2022/06/16 09:43:04;;;;;;;3.05;1.35;;;;;;;23.72;49.71;100827.52;1725585;82;25753;-82
2022/06/16 09:45:48;;;;;;;1.57;0.90;;;;;;;23.71;48.99;100831.36;1764158;80;25926;-82
2022/06/16 09:48:29;;;;;;;2.22;1.15;;;;;;;23.70;49.26;100818.22;1739657;80;25924;-82
2022/06/16 09:51:11;;;;;;;2.42;1.30;;;;;;;23.75;49.20;100825.62;1747033;81;27462;-82
2022/06/16 09:53:49;;;;;;;2.08;1.17;;;;;;;23.83;49.15;100817.43;1748110;81;26341;-82
2022/06/16 09:56:32;;;;;;;2.92;1.05;;;;;;;23.94;49.29;100821.31;1752089;81;25643;-81
2022/06/16 09:59:11;;;;;;;2.22;1.10;;;;;;;24.08;49.42;100822.46;1728265;80;26645;-81
2022/06/16 10:02:00;;;;;;;1.30;1.05;;;;;;;24.19;48.57;100813.72;1728314;80;25940;-82
2022/06/16 10:04:27;;;;;;;1.15;0.80;;;;;;;24.23;48.19;100811.55;1733211;81;28405;-81
2022/06/16 10:07:14;;;;;;;2.83;1.40;;;;;;;24.26;46.96;100813.75;1752967;79;26100;-82
2022/06/16 10:10:06;;;;;;;3.90;0.98;;;;;;;24.28;47.27;100809.36;1779682;79;25927;-82
2022/06/16 10:12:50;;;;;;;4.65;1.10;;;;;;;24.32;48.36;100809.92;1741257;81;25779;-82
2022/06/16 10:15:33;;;;;;;2.25;1.07;;;;;;;24.43;47.46;100802.00;1724623;81;25772;-83
2022/06/16 10:18:00;;;;;;;8.90;1.20;;;;;;;24.53;46.48;100809.95;1713992;82;26916;-82
2022/06/16 10:20:29;;;;;;;2.22;1.05;;;;;;;24.53;46.29;100805.27;1742748;81;25299;-82
2022/06/16 10:23:18;;;;;;;2.52;0.90;;;;;;;24.55;46.67;100811.87;1749801;81;25754;-82
2022/06/16 10:25:54;;;;;;;2.85;0.82;;;;;;;24.56;46.22;100806.11;1744794;81;26571;-82
2022/06/16 10:28:29;;;;;;;2.58;1.00;;;;;;;24.60;46.39;100800.89;1742707;81;26435;-82
2022/06/16 10:31:00;;;;;;;3.15;1.12;;;;;;;24.72;46.00;100800.09;1729475;81;27488;-82
2022/06/16 10:33:33;;;;;;;1.95;0.95;;;;;;;24.76;45.94;100794.36;1754952;80;25913;-81
2022/06/16 10:36:14;;;;;;;1.00;0.95;;;;;;;24.82;46.42;100791.34;1740466;82;25585;-81
2022/06/16 10:38:48;;;;;;;4.35;1.30;;;;;;;24.92;45.97;100791.86;1755201;81;26665;-81
2022/06/16 10:41:29;;;;;;;2.90;1.00;;;;;;;25.05;46.24;100795.41;1752361;81;25400;-81
2022/06/16 10:44:00;;;;;;;2.62;0.90;;;;;;;25.12;45.60;100795.41;1765911;81;27458;-82
2022/06/16 10:46:31;;;;;;;2.85;1.17;;;;;;;25.15;44.92;100799.48;1726968;82;25752;-82
2022/06/16 10:49:01;;;;;;;;;;;;;;;25.14;44.15;100793.20;1737130;82;25753;-82
2022/06/16 10:51:30;;;;;;;2.10;0.98;;;;;;;25.18;45.49;100795.66;1745326;81;25904;-81
2022/06/16 10:54:30;;;;;;;1.27;0.90;;;;;;;25.28;45.19;100794.25;1743257;81;25784;-82
2022/06/16 10:57:21;;;;;;;3.45;1.47;;;;;;;25.32;44.60;100797.24;1734587;81;27589;-82
2022/06/16 10:59:59;;;;;;;2.35;1.20;;;;;;;25.39;45.08;100791.47;1721251;80;25753;-84
2022/06/16 11:02:30;;;;;;;4.85;1.10;;;;;;;25.47;45.34;100794.48;1727672;82;25935;-81
2022/06/16 11:05:02;;;;;;;1.72;1.00;;;;;;;25.54;44.17;100789.52;1748640;81;26644;-81
2022/06/16 11:07:39;;;;;;;3.58;0.98;;;;;;;25.61;44.69;100787.85;1735926;81;25896;-80
2022/06/16 11:10:10;;;;;;;1.90;0.90;;;;;;;25.65;44.45;100788.38;1760206;81;28277;-82
2022/06/16 11:12:42;;;;;;;4.75;1.15;;;;;;;25.64;43.28;100786.73;1741065;81;26248;-84
2022/06/16 11:15:32;;;;;;;3.02;1.07;;;;;;;25.61;43.83;100787.30;1746042;81;25726;-81
2022/06/16 11:18:06;;;;;;;2.00;1.07;;;;;;;25.64;44.00;100794.16;1745977;81;26571;-82
2022/06/16 11:20:40;;;;;;;4.60;1.55;;;;;;;25.65;43.65;100788.38;1707728;82;25806;-81
2022/06/16 11:23:29;;;;;;;3.45;1.10;;;;;;;25.67;42.09;100789.47;1739561;81;27488;-81
2022/06/16 11:26:16;;;;;;;3.50;0.95;;;;;;;25.66;41.68;100785.09;1753178;80;26144;-79
2022/06/16 11:28:51;;;;;;;1.02;0.93;;;;;;;25.69;41.55;100786.72;1750841;81;25819;-80
2022/06/16 11:31:26;;;;;;;2.80;1.10;;;;;;;25.75;42.47;100790.24;1763653;81;25743;-81
2022/06/16 11:34:19;;;;;;;2.17;1.27;;;;;;;25.89;43.17;100789.36;1740776;82;25745;-79
2022/06/16 11:37:09;;;;;;;1.32;0.90;;;;;;;26.03;42.01;100773.89;1745435;81;27742;-81
2022/06/16 11:40:20;;;;;;;2.67;0.93;;;;;;;26.13;43.13;100781.84;1754165;81;25339;-81
2022/06/16 11:43:00;;;;;;;1.17;0.80;;;;;;;26.24;43.17;100773.80;1758934;81;25909;-80
2022/06/16 11:45:44;;;;;;;4.37;1.10;;;;;;;26.33;42.94;100770.69;1741170;82;25845;-81
2022/06/16 11:48:50;;;;;;;2.52;1.10;;;;;;;26.38;41.66;100774.78;1740473;80;25876;-80
2022/06/16 11:51:41;;;;;;;1.75;1.10;;;;;;;26.44;41.72;100769.50;1742927;80;27479;-82
2022/06/16 11:54:35;;;;;;;3.30;1.17;;;;;;;26.34;41.84;100767.67;1748594;80;25858;-80
2022/06/16 11:57:29;;;;;;;3.95;2.00;;;;;;;26.30;41.48;100763.86;1730605;80;25525;-80
2022/06/16 12:00:21;;;;;;;3.58;1.17;;;;;;;26.26;41.84;100756.48;1699468;82;25803;-81
2022/06/16 12:02:59;;;;;;;4.47;1.22;;;;;;;26.29;41.03;100756.72;1732184;82;25249;-80
2022/06/16 12:05:43;;;;;;;3.12;1.12;;;;;;;26.29;41.88;100748.48;1762761;81;27616;-81
2022/06/16 12:08:25;;;;;;;1.75;1.15;;;;;;;26.26;41.36;100744.12;1749144;81;25746;-81
2022/06/16 12:11:06;;;;;;;2.30;1.00;;;;;;;26.20;41.96;100743.33;1730857;82;25900;-79
2022/06/16 12:14:02;;;;;;;1.62;1.12;;;;;;;26.27;42.15;100743.83;1712559;81;25869;-80